Terminal Aerodrome Forecast
Issued by NWS Greer, SC

Current Version | Previous Version | Text Only | Print | Product List | Glossary On
Versions: 1 2 3 4 5 6 7 8 9 10 11 12 13 14 15 16 17 18 19 20 21 22 23 24 25 26 27 28 29 30
000
FTUS42 KGSP 290240 AAB
TAFCLT
TAF AMD
KCLT 290240Z 2903/2924 17006KT P6SM SCT060 BKN250
     FM291100 19003KT 3SM BR SCT005
     FM291300 19003KT P6SM SCT250
     FM291700 18007KT P6SM SCT100=

USA.gov is the U.S. government's official web portal to all federal, state and local government web resources and services.